Nambucca Heads, Australia
Current Conditions -  °F | °C
As of 4:00 AM on Friday 31 Oct 2014 (Local Time) from YCFS Reporting Station
Clear Clear  
Wind Chill: 18°   Ceiling: Unl
Heat Index: 18°   Visibility: 6mi
Dew Point: 16°   Wind: 5mph
Humidity: 88%   Direction: 350°N
Pressure: 29.91"   Gusts: NA
Location:  30.64°S, 153°E
Report Text: YCFS 301700Z AUTO 35004KT 9999 // NCD 18/16 Q1013
Loading
Personal Weather Stations






























Interactive Weather Map
Tropical Storm Tracking
New forecast layout! Learn more

10-Day Weather Forecast

Advertisements
Track Severe Weather on mobile